createdAt,value
2022-12-05T00:01:55.321Z,30.70
2022-12-05T00:06:02.932Z,30.20
2022-12-05T00:10:12.765Z,26.30
2022-12-05T00:14:20.645Z,23.70
2022-12-05T00:18:28.425Z,22.50
2022-12-05T00:22:39.143Z,30.10
2022-12-05T00:26:46.724Z,28.90
2022-12-05T00:30:55.021Z,26.50
2022-12-05T00:35:02.480Z,24.90
2022-12-05T00:39:14.617Z,26.10
2022-12-05T00:43:22.571Z,29.10
2022-12-05T00:47:30.013Z,29.30
2022-12-05T00:51:40.330Z,28.10
2022-12-05T00:55:48.986Z,26.50
2022-12-05T00:59:58.724Z,31.00
2022-12-05T01:04:09.724Z,31.40
2022-12-05T01:08:17.549Z,28.80
2022-12-05T01:12:28.370Z,32.90
2022-12-05T01:16:37.572Z,28.60
2022-12-05T01:20:46.632Z,33.10
2022-12-05T01:24:54.258Z,30.20
2022-12-05T01:29:01.813Z,29.70
2022-12-05T01:33:09.879Z,28.40
2022-12-05T01:37:17.246Z,21.10
2022-12-05T01:41:27.527Z,26.20
2022-12-05T01:45:38.833Z,27.40
2022-12-05T01:49:47.805Z,33.50
2022-12-05T01:53:55.374Z,31.60
2022-12-05T01:58:03.678Z,29.30
2022-12-05T02:02:12.082Z,25.40
2022-12-05T02:06:20.448Z,27.50
2022-12-05T02:10:28.899Z,33.80
2022-12-05T02:14:44.247Z,33.70
2022-12-05T02:18:59.547Z,33.40
2022-12-05T02:23:30.831Z,29.80
2022-12-05T02:27:52.951Z,31.10
2022-12-05T02:32:08.883Z,29.40
2022-12-05T02:36:23.365Z,26.90
2022-12-05T02:40:35.558Z,29.90
2022-12-05T02:44:46.730Z,29.50
2022-12-05T02:48:57.889Z,29.60
2022-12-05T02:53:08.512Z,29.60
2022-12-05T02:57:16.788Z,25.30
2022-12-05T03:01:27.508Z,27.90
2022-12-05T03:05:42.629Z,30.10
2022-12-05T03:09:53.046Z,29.90
2022-12-05T03:14:02.869Z,28.20
2022-12-05T03:18:14.930Z,26.00
2022-12-05T03:22:27.956Z,22.30
2022-12-05T03:26:42.431Z,25.60
2022-12-05T03:30:51.028Z,29.70
2022-12-05T03:35:08.314Z,30.90
2022-12-05T03:39:22.921Z,27.80
2022-12-05T03:43:34.529Z,19.90
2022-12-05T03:47:48.879Z,25.50
2022-12-05T03:52:00.266Z,22.50
2022-12-05T03:56:12.764Z,28.60
2022-12-05T04:00:23.131Z,27.80
2022-12-05T04:04:33.519Z,25.80
2022-12-05T04:08:44.363Z,20.40
2022-12-05T04:12:53.954Z,23.90
2022-12-05T04:17:07.403Z,25.10
2022-12-05T04:21:32.671Z,27.40
2022-12-05T04:25:46.318Z,28.00
2022-12-05T04:29:59.746Z,23.50
2022-12-05T04:34:10.482Z,23.20
2022-12-05T04:38:22.418Z,18.40
2022-12-05T04:42:32.243Z,25.20
2022-12-05T04:46:42.414Z,30.20
2022-12-05T04:50:51.505Z,26.70
2022-12-05T04:55:04.543Z,24.20
2022-12-05T04:59:12.900Z,23.30
2022-12-05T05:03:25.718Z,20.60
2022-12-05T05:07:33.493Z,25.00
2022-12-05T05:11:41.484Z,27.40
2022-12-05T05:15:49.018Z,26.40
2022-12-05T05:20:19.762Z,22.70
2022-12-05T05:24:27.941Z,23.10
2022-12-05T05:28:35.427Z,22.00
2022-12-05T05:32:43.181Z,28.00
2022-12-05T05:36:54.505Z,28.20
2022-12-05T05:41:03.352Z,26.20
2022-12-05T05:45:14.655Z,26.80
2022-12-05T05:49:22.936Z,24.10
2022-12-05T05:53:30.969Z,20.60
2022-12-05T05:57:39.616Z,30.10
2022-12-05T06:01:47.330Z,28.20
2022-12-05T06:06:01.555Z,27.30
2022-12-05T06:10:10.920Z,25.70
2022-12-05T06:14:18.633Z,23.90
2022-12-05T06:18:26.583Z,23.40
2022-12-05T06:22:34.078Z,23.90
2022-12-05T06:26:42.136Z,28.80
2022-12-05T06:30:49.841Z,28.30
2022-12-05T06:34:57.349Z,25.40
2022-12-05T06:39:07.243Z,22.30
2022-12-05T06:43:15.203Z,22.90
2022-12-05T06:47:22.638Z,24.00
2022-12-05T06:51:30.053Z,28.00
2022-12-05T06:55:37.759Z,27.20
2022-12-05T06:59:45.295Z,26.20
2022-12-05T07:03:53.641Z,21.10
2022-12-05T07:08:01.527Z,20.30
2022-12-05T07:12:09.643Z,22.80
2022-12-05T07:16:17.638Z,28.50
2022-12-05T07:20:38.419Z,28.10
2022-12-05T07:24:56.568Z,26.30
2022-12-05T07:29:04.414Z,23.90
2022-12-05T07:33:13.905Z,23.60
2022-12-05T07:37:21.957Z,22.40
2022-12-05T07:41:31.467Z,27.90
2022-12-05T07:45:40.478Z,27.70
2022-12-05T07:49:48.500Z,28.70
2022-12-05T07:54:01.772Z,25.50
2022-12-05T07:58:15.437Z,24.20
2022-12-05T08:02:25.228Z,27.00
2022-12-05T08:06:41.206Z,31.60
2022-12-05T08:10:53.819Z,30.20
2022-12-05T08:15:05.136Z,28.60
2022-12-05T08:19:21.350Z,23.80
2022-12-05T08:23:31.985Z,24.60
2022-12-05T08:27:39.816Z,20.70
2022-12-05T08:32:01.116Z,27.60
2022-12-05T08:36:16.767Z,28.50
2022-12-05T08:40:29.665Z,26.30
2022-12-05T08:44:44.375Z,24.00
2022-12-05T08:48:54.612Z,23.60
2022-12-05T08:53:03.851Z,22.20
2022-12-05T08:57:22.538Z,27.50
2022-12-05T09:01:33.143Z,27.40
2022-12-05T09:05:41.803Z,27.40
2022-12-05T09:09:54.945Z,24.50
2022-12-05T09:14:14.963Z,23.70
2022-12-05T09:18:22.831Z,22.30
2022-12-05T09:22:34.783Z,26.70
2022-12-05T09:26:51.590Z,27.20
2022-12-05T09:31:04.975Z,28.30
2022-12-05T09:35:13.276Z,24.30
2022-12-05T09:39:28.252Z,24.40
2022-12-05T09:43:47.777Z,22.50
2022-12-05T09:48:02.158Z,26.90
2022-12-05T09:52:25.038Z,28.80
2022-12-05T09:56:45.629Z,27.90
2022-12-05T10:01:00.122Z,25.90
2022-12-05T10:05:16.407Z,25.90
2022-12-05T10:09:50.051Z,26.40
2022-12-05T10:14:04.730Z,28.30
2022-12-05T10:18:21.411Z,28.90
2022-12-05T10:22:36.847Z,29.80
2022-12-05T10:26:51.226Z,28.20
2022-12-05T10:31:00.181Z,25.00
2022-12-05T10:35:18.889Z,24.10
2022-12-05T10:39:26.639Z,26.30
2022-12-05T10:43:37.361Z,27.60
2022-12-05T10:47:51.200Z,26.20
2022-12-05T10:51:59.746Z,29.00
2022-12-05T11:00:45.272Z,26.50
2022-12-05T11:04:53.209Z,22.10
2022-12-05T11:09:17.481Z,27.50
2022-12-05T11:13:28.283Z,26.70
2022-12-05T11:17:37.363Z,28.30
2022-12-05T11:21:46.872Z,25.60
2022-12-05T11:25:56.152Z,28.20
2022-12-05T11:30:08.121Z,28.30
2022-12-05T11:34:21.070Z,26.00
2022-12-05T11:38:32.353Z,24.00
2022-12-05T11:42:45.313Z,24.70
2022-12-05T11:47:01.744Z,28.50
2022-12-05T11:51:34.648Z,29.10
2022-12-05T11:55:47.578Z,27.30
2022-12-05T12:00:17.058Z,29.90
2022-12-05T12:04:35.636Z,25.40
2022-12-05T12:08:53.518Z,22.20
2022-12-05T12:13:10.765Z,20.60
2022-12-05T12:17:26.139Z,27.60
2022-12-05T12:21:46.772Z,28.40
2022-12-05T12:26:07.810Z,27.00
2022-12-05T12:30:21.182Z,27.60
2022-12-05T12:35:21.158Z,26.00
2022-12-05T12:39:37.210Z,25.50
2022-12-05T12:43:54.365Z,26.90
2022-12-05T12:48:19.757Z,28.40
2022-12-05T12:52:31.532Z,28.80
2022-12-05T12:56:48.473Z,27.90
2022-12-05T13:01:06.319Z,27.30
2022-12-05T13:05:23.963Z,26.10
2022-12-05T13:09:33.999Z,26.70
2022-12-05T13:13:45.537Z,28.10
2022-12-05T13:17:54.386Z,27.80
2022-12-05T13:22:02.350Z,28.30
2022-12-05T13:26:13.830Z,25.30
2022-12-05T13:30:22.603Z,25.90
2022-12-05T13:34:48.376Z,26.70
2022-12-05T13:39:21.831Z,28.10
2022-12-05T13:43:31.011Z,27.70
2022-12-05T13:47:51.190Z,27.20
2022-12-05T13:52:09.195Z,27.20
2022-12-05T13:56:47.045Z,27.90
2022-12-05T14:01:35.546Z,27.40
2022-12-05T14:05:51.271Z,32.00
2022-12-05T14:10:00.105Z,29.80
2022-12-05T14:14:13.837Z,31.50
2022-12-05T14:18:25.314Z,28.40
2022-12-05T14:22:52.077Z,29.80
2022-12-05T14:27:08.922Z,28.60
2022-12-05T14:31:30.463Z,30.40
2022-12-05T14:35:48.278Z,28.40
2022-12-05T14:39:57.444Z,36.10
2022-12-05T14:44:08.720Z,38.40
2022-12-05T14:48:31.510Z,37.40
2022-12-05T14:52:41.527Z,34.90
2022-12-05T14:56:52.882Z,33.30
2022-12-05T15:01:02.883Z,43.80
2022-12-05T15:05:22.911Z,48.70
2022-12-05T15:09:46.071Z,41.30
2022-12-05T15:13:55.958Z,33.80
2022-12-05T15:18:13.923Z,31.90
2022-12-05T15:22:24.056Z,35.10
2022-12-05T15:26:49.861Z,45.20
2022-12-05T15:30:59.792Z,42.80
2022-12-05T15:35:14.649Z,44.50
2022-12-05T15:39:26.017Z,38.80
2022-12-05T15:43:38.768Z,34.70
2022-12-05T15:47:48.275Z,34.00
2022-12-05T15:51:59.896Z,48.50
2022-12-05T15:56:12.996Z,49.40
2022-12-05T16:00:23.603Z,43.20
2022-12-05T16:04:35.436Z,43.80
2022-12-05T16:08:48.715Z,43.30
2022-12-05T16:12:56.837Z,38.40
2022-12-05T16:17:06.734Z,40.40
2022-12-05T16:21:38.476Z,37.10
2022-12-05T16:25:47.531Z,33.50
2022-12-05T16:30:18.036Z,36.30
2022-12-05T16:34:27.248Z,32.50
2022-12-05T16:38:34.944Z,31.20
2022-12-05T16:42:43.772Z,27.00
2022-12-05T16:46:51.466Z,27.30
2022-12-05T16:51:19.949Z,28.40
2022-12-05T16:55:27.860Z,28.40
2022-12-05T16:59:38.199Z,28.00
2022-12-05T17:03:46.141Z,26.70
2022-12-05T17:07:54.534Z,26.20
2022-12-05T17:12:04.362Z,28.80
2022-12-05T17:16:12.244Z,34.20
2022-12-05T17:20:20.354Z,35.20
2022-12-05T17:24:28.699Z,35.90
2022-12-05T17:28:36.622Z,37.20
2022-12-05T17:32:44.824Z,35.90
2022-12-05T17:36:53.781Z,39.40
2022-12-05T17:41:03.992Z,39.20
2022-12-05T17:45:19.510Z,37.60
2022-12-05T17:49:26.702Z,36.50
2022-12-05T17:53:35.722Z,32.70
2022-12-05T17:57:43.424Z,38.30
2022-12-05T18:01:50.837Z,26.70
2022-12-05T18:05:58.077Z,33.80
2022-12-05T18:10:12.341Z,35.50
2022-12-05T18:14:20.559Z,37.10
2022-12-05T18:18:29.598Z,33.00
2022-12-05T18:22:36.729Z,35.40
2022-12-05T18:26:44.663Z,32.30
2022-12-05T18:30:52.178Z,31.00
2022-12-05T18:35:01.920Z,29.00
2022-12-05T18:39:11.780Z,31.50
2022-12-05T18:43:19.344Z,30.70
2022-12-05T18:47:26.803Z,29.80
2022-12-05T18:51:35.826Z,29.10
2022-12-05T18:56:05.424Z,30.90
2022-12-05T19:00:14.442Z,32.40
2022-12-05T19:04:23.680Z,30.70
2022-12-05T19:08:31.265Z,30.30
2022-12-05T19:12:39.519Z,30.80
2022-12-05T19:16:47.521Z,30.40
2022-12-05T19:20:55.234Z,30.20
2022-12-05T19:25:05.042Z,28.50
2022-12-05T19:29:16.658Z,27.20
2022-12-05T19:33:27.583Z,23.80
2022-12-05T19:37:36.111Z,24.10
2022-12-05T19:41:44.519Z,23.40
2022-12-05T19:45:53.882Z,27.30
2022-12-05T19:50:01.655Z,22.50
2022-12-05T19:54:10.782Z,20.50
2022-12-05T19:58:20.596Z,19.80
2022-12-05T20:02:29.534Z,24.40
2022-12-05T20:06:39.405Z,25.70
2022-12-05T20:10:46.826Z,24.20
2022-12-05T20:14:54.693Z,27.90
2022-12-05T20:19:05.006Z,25.70
2022-12-05T20:23:16.997Z,21.40
2022-12-05T20:27:24.524Z,21.70
2022-12-05T20:31:33.996Z,23.60
2022-12-05T20:35:41.817Z,23.10
2022-12-05T20:39:49.895Z,24.10
2022-12-05T20:44:01.394Z,22.80
2022-12-05T20:48:09.489Z,22.40
2022-12-05T20:52:17.281Z,22.00
2022-12-05T20:56:26.462Z,24.20
2022-12-05T21:00:34.875Z,22.90
2022-12-05T21:04:42.297Z,20.50
2022-12-05T21:08:49.682Z,18.50
2022-12-05T21:12:57.771Z,19.40
2022-12-05T21:17:05.763Z,20.90
2022-12-05T21:21:16.295Z,19.90
2022-12-05T21:25:24.557Z,21.40
2022-12-05T21:29:33.363Z,22.00
2022-12-05T21:33:41.485Z,23.80
2022-12-05T21:37:49.489Z,21.80
2022-12-05T21:41:56.938Z,22.50
2022-12-05T21:46:04.788Z,23.70
2022-12-05T21:50:13.278Z,23.00
2022-12-05T21:54:21.771Z,17.70
2022-12-05T21:58:30.437Z,15.70
2022-12-05T22:02:38.468Z,14.80
2022-12-05T22:06:45.980Z,14.60
2022-12-05T22:10:56.577Z,16.10
2022-12-05T22:15:04.217Z,15.50
2022-12-05T22:19:11.906Z,15.40
2022-12-05T22:23:19.652Z,16.40
2022-12-05T22:27:27.219Z,15.00
2022-12-05T22:31:34.782Z,16.50
2022-12-05T22:35:42.320Z,16.60
2022-12-05T22:39:50.959Z,16.80
2022-12-05T22:44:01.466Z,17.40
2022-12-05T22:48:09.754Z,16.00
2022-12-05T22:52:17.476Z,16.80
2022-12-05T22:56:26.268Z,16.80
2022-12-05T23:00:33.743Z,16.00
2022-12-05T23:04:42.504Z,18.80
2022-12-05T23:08:50.238Z,21.00
2022-12-05T23:12:58.262Z,21.50
2022-12-05T23:17:05.956Z,21.80
2022-12-05T23:21:20.073Z,17.40
2022-12-05T23:25:27.530Z,16.70
2022-12-05T23:29:35.402Z,15.90
2022-12-05T23:33:43.309Z,15.80
2022-12-05T23:37:50.542Z,15.50
2022-12-05T23:41:57.739Z,15.00
2022-12-05T23:46:06.704Z,15.00
2022-12-05T23:50:14.298Z,15.70
2022-12-05T23:54:23.261Z,16.20
2022-12-05T23:58:31.955Z,17.20
